sensor_id;sensor_type;location;lat;lon;timestamp;pressure;altitude;pressure_sealevel;temperature;humidity
50592;BME280;36548;50.506;30.834;2022-08-07T00:00:44;100013.39;;;26.25;54.32
50592;BME280;36548;50.506;30.834;2022-08-07T00:01:59;100009.56;;;26.26;54.58
50592;BME280;36548;50.506;30.834;2022-08-07T00:03:10;100017.80;;;26.13;54.71
50592;BME280;36548;50.506;30.834;2022-08-07T00:04:25;100012.50;;;26.18;54.82
50592;BME280;36548;50.506;30.834;2022-08-07T00:05:52;100012.91;;;26.08;54.85
50592;BME280;36548;50.506;30.834;2022-08-07T00:07:19;100021.72;;;25.97;55.34
50592;BME280;36548;50.506;30.834;2022-08-07T00:08:34;100012.69;;;26.10;55.35
50592;BME280;36548;50.506;30.834;2022-08-07T00:09:46;100013.27;;;25.98;55.36
50592;BME280;36548;50.506;30.834;2022-08-07T00:10:57;100016.02;;;25.98;55.39
50592;BME280;36548;50.506;30.834;2022-08-07T00:12:07;100013.27;;;25.98;55.40
50592;BME280;36548;50.506;30.834;2022-08-07T00:13:20;100016.85;;;25.92;55.71
50592;BME280;36548;50.506;30.834;2022-08-07T00:14:36;100010.78;;;26.03;55.69
50592;BME280;36548;50.506;30.834;2022-08-07T00:15:48;100014.94;;;25.93;55.75
50592;BME280;36548;50.506;30.834;2022-08-07T00:17:04;100007.41;;;26.08;55.48
50592;BME280;36548;50.506;30.834;2022-08-07T00:18:16;100008.87;;;26.04;55.29
50592;BME280;36548;50.506;30.834;2022-08-07T00:19:43;100014.16;;;26.06;55.25
50592;BME280;36548;50.506;30.834;2022-08-07T00:20:59;100012.43;;;25.98;55.49
50592;BME280;36548;50.506;30.834;2022-08-07T00:22:15;100008.48;;;26.07;55.75
50592;BME280;36548;50.506;30.834;2022-08-07T00:23:29;100004.66;;;26.01;55.62
50592;BME280;36548;50.506;30.834;2022-08-07T00:24:44;100012.09;;;26.14;55.55
50592;BME280;36548;50.506;30.834;2022-08-07T00:25:59;100014.82;;;26.08;55.47
50592;BME280;36548;50.506;30.834;2022-08-07T00:27:26;100019.69;;;26.12;55.44
50592;BME280;36548;50.506;30.834;2022-08-07T00:28:43;100025.23;;;26.26;55.51
50592;BME280;36548;50.506;30.834;2022-08-07T00:29:54;100016.94;;;26.12;55.63
50592;BME280;36548;50.506;30.834;2022-08-07T00:31:10;100016.77;;;26.27;55.71
50592;BME280;36548;50.506;30.834;2022-08-07T00:32:20;100023.52;;;26.18;55.70
50592;BME280;36548;50.506;30.834;2022-08-07T00:33:47;100020.58;;;26.19;55.74
50592;BME280;36548;50.506;30.834;2022-08-07T00:35:03;100014.02;;;26.27;55.91
50592;BME280;36548;50.506;30.834;2022-08-07T00:36:13;100018.83;;;26.05;56.53
50592;BME280;36548;50.506;30.834;2022-08-07T00:37:25;100022.17;;;26.00;56.59
50592;BME280;36548;50.506;30.834;2022-08-07T00:38:41;100017.57;;;26.08;56.80
50592;BME280;36548;50.506;30.834;2022-08-07T00:39:51;100019.36;;;25.87;57.20
50592;BME280;36548;50.506;30.834;2022-08-07T00:41:11;100014.97;;;25.99;57.12
50592;BME280;36548;50.506;30.834;2022-08-07T00:42:23;100017.27;;;25.89;57.11
50592;BME280;36548;50.506;30.834;2022-08-07T00:43:50;100023.81;;;25.88;57.22
50592;BME280;36548;50.506;30.834;2022-08-07T00:45:03;100027.41;;;25.89;57.25
50592;BME280;36548;50.506;30.834;2022-08-07T00:46:19;100017.09;;;25.97;57.23
50592;BME280;36548;50.506;30.834;2022-08-07T00:47:30;100022.11;;;25.87;57.13
50592;BME280;36548;50.506;30.834;2022-08-07T00:48:43;100030.16;;;25.89;57.17
50592;BME280;36548;50.506;30.834;2022-08-07T00:49:54;100023.61;;;25.90;57.09
50592;BME280;36548;50.506;30.834;2022-08-07T00:51:06;100022.56;;;25.91;57.05
50592;BME280;36548;50.506;30.834;2022-08-07T00:52:16;100021.30;;;25.93;57.07
50592;BME280;36548;50.506;30.834;2022-08-07T00:53:32;100015.66;;;26.01;57.04
50592;BME280;36548;50.506;30.834;2022-08-07T00:54:44;100020.86;;;25.90;57.11
50592;BME280;36548;50.506;30.834;2022-08-07T00:55:59;100020.67;;;25.98;57.32
50592;BME280;36548;50.506;30.834;2022-08-07T00:57:13;100024.86;;;25.87;57.27
50592;BME280;36548;50.506;30.834;2022-08-07T00:58:25;100024.02;;;25.86;57.24
50592;BME280;36548;50.506;30.834;2022-08-07T00:59:40;100022.35;;;25.92;57.38
50592;BME280;36548;50.506;30.834;2022-08-07T01:00:51;100027.78;;;25.79;57.48
50592;BME280;36548;50.506;30.834;2022-08-07T01:02:07;100027.41;;;25.89;57.71
50592;BME280;36548;50.506;30.834;2022-08-07T01:03:18;100025.91;;;25.79;57.71
50592;BME280;36548;50.506;30.834;2022-08-07T01:04:45;100034.98;;;25.80;57.57
50592;BME280;36548;50.506;30.834;2022-08-07T01:06:02;100032.06;;;25.88;57.72
50592;BME280;36548;50.506;30.834;2022-08-07T01:07:12;100041.95;;;25.76;57.66
50592;BME280;36548;50.506;30.834;2022-08-07T01:08:28;100035.83;;;25.80;57.92
50592;BME280;36548;50.506;30.834;2022-08-07T01:09:39;100046.36;;;25.70;57.96
50592;BME280;36548;50.506;30.834;2022-08-07T01:11:08;100042.95;;;25.68;58.03
50592;BME280;36548;50.506;30.834;2022-08-07T01:12:24;100035.40;;;25.77;57.91
50592;BME280;36548;50.506;30.834;2022-08-07T01:13:39;100035.98;;;25.65;57.98
50592;BME280;36548;50.506;30.834;2022-08-07T01:14:54;100035.99;;;25.72;58.15
50592;BME280;36548;50.506;30.834;2022-08-07T01:16:08;100042.94;;;25.61;58.39
50592;BME280;36548;50.506;30.834;2022-08-07T01:17:36;100046.52;;;25.62;58.31
50592;BME280;36548;50.506;30.834;2022-08-07T01:18:48;100039.53;;;25.59;58.28
50592;BME280;36548;50.506;30.834;2022-08-07T01:20:11;100042.11;;;25.67;58.39
50592;BME280;36548;50.506;30.834;2022-08-07T01:21:25;100037.83;;;25.58;58.49
50592;BME280;36548;50.506;30.834;2022-08-07T01:22:39;100044.19;;;25.59;58.40
50592;BME280;36548;50.506;30.834;2022-08-07T01:23:53;100039.94;;;25.56;58.45
50592;BME280;36548;50.506;30.834;2022-08-07T01:25:12;100041.23;;;25.60;58.66
50592;BME280;36548;50.506;30.834;2022-08-07T01:26:26;100047.89;;;25.44;58.84
50592;BME280;36548;50.506;30.834;2022-08-07T01:27:44;100041.81;;;25.49;59.20
50592;BME280;36548;50.506;30.834;2022-08-07T01:29:11;100042.75;;;25.34;59.23
50592;BME280;36548;50.506;30.834;2022-08-07T01:30:24;100041.42;;;25.30;59.39
50592;BME280;36548;50.506;30.834;2022-08-07T01:31:40;100043.42;;;25.37;59.52
50592;BME280;36548;50.506;30.834;2022-08-07T01:32:55;100046.44;;;25.20;59.72
50592;BME280;36548;50.506;30.834;2022-08-07T01:34:12;100045.42;;;25.28;59.91
50592;BME280;36548;50.506;30.834;2022-08-07T01:35:23;100046.59;;;25.12;59.98
50592;BME280;36548;50.506;30.834;2022-08-07T01:36:35;100047.83;;;25.09;60.15
50592;BME280;36548;50.506;30.834;2022-08-07T01:37:52;100044.94;;;25.17;60.33
50592;BME280;36548;50.506;30.834;2022-08-07T01:39:03;100043.35;;;25.01;60.45
50592;BME280;36548;50.506;30.834;2022-08-07T01:40:20;100053.33;;;25.09;60.65
50592;BME280;36548;50.506;30.834;2022-08-07T01:41:39;100040.34;;;24.96;60.69
50592;BME280;36548;50.506;30.834;2022-08-07T01:42:59;100047.56;;;25.04;60.84
50592;BME280;36548;50.506;30.834;2022-08-07T01:44:13;100042.42;;;24.94;60.86
50592;BME280;36548;50.506;30.834;2022-08-07T01:45:42;100043.49;;;24.93;60.93
50592;BME280;36548;50.506;30.834;2022-08-07T01:46:56;100042.42;;;24.94;60.94
50592;BME280;36548;50.506;30.834;2022-08-07T01:48:13;100043.15;;;25.03;60.98
50592;BME280;36548;50.506;30.834;2022-08-07T01:49:25;100048.31;;;24.91;60.97
50592;BME280;36548;50.506;30.834;2022-08-07T01:50:41;100038.90;;;25.00;61.18
50592;BME280;36548;50.506;30.834;2022-08-07T01:52:07;100042.62;;;24.93;61.05
50592;BME280;36548;50.506;30.834;2022-08-07T01:53:36;100045.17;;;24.94;60.95
50592;BME280;36548;50.506;30.834;2022-08-07T01:54:54;100043.17;;;25.10;61.00
50592;BME280;36548;50.506;30.834;2022-08-07T01:56:09;100043.15;;;25.03;60.87
50592;BME280;36548;50.506;30.834;2022-08-07T01:57:29;100038.61;;;25.17;60.52
50592;BME280;36548;50.506;30.834;2022-08-07T01:58:50;100039.59;;;25.09;60.41
50592;BME280;36548;50.506;30.834;2022-08-07T02:00:09;100033.55;;;25.21;60.19
50592;BME280;36548;50.506;30.834;2022-08-07T02:01:29;100036.64;;;25.11;60.18
50592;BME280;36548;50.506;30.834;2022-08-07T02:02:52;100035.05;;;25.23;60.31
50592;BME280;36548;50.506;30.834;2022-08-07T02:04:13;100041.09;;;25.12;60.04
50592;BME280;36548;50.506;30.834;2022-08-07T02:05:54;100052.48;;;25.09;60.15
50592;BME280;36548;50.506;30.834;2022-08-07T02:07:11;100040.05;;;25.13;60.41
50592;BME280;36548;50.506;30.834;2022-08-07T02:08:24;100043.52;;;25.00;60.55
50592;BME280;36548;50.506;30.834;2022-08-07T02:09:42;100040.20;;;25.05;60.92
50592;BME280;36548;50.506;30.834;2022-08-07T02:10:57;100043.87;;;24.90;61.01
50592;BME280;36548;50.506;30.834;2022-08-07T02:12:27;100040.69;;;24.87;61.10
50592;BME280;36548;50.506;30.834;2022-08-07T02:13:45;100032.69;;;24.92;61.40
50592;BME280;36548;50.506;30.834;2022-08-07T02:15:00;100038.08;;;24.78;61.46
50592;BME280;36548;50.506;30.834;2022-08-07T02:16:17;100042.56;;;24.86;61.57
50592;BME280;36548;50.506;30.834;2022-08-07T02:17:34;100038.65;;;24.74;61.78
50592;BME280;36548;50.506;30.834;2022-08-07T02:20:21;100034.30;;;24.79;61.92
50592;BME280;36548;50.506;30.834;2022-08-07T02:21:36;100044.94;;;24.67;62.02
50592;BME280;36548;50.506;30.834;2022-08-07T02:22:51;100044.11;;;24.67;62.07
50592;BME280;36548;50.506;30.834;2022-08-07T02:24:04;100051.27;;;24.68;62.04
50592;BME280;36548;50.506;30.834;2022-08-07T02:25:21;100044.41;;;24.79;62.12
50592;BME280;36548;50.506;30.834;2022-08-07T02:26:36;100043.91;;;24.68;62.07
50592;BME280;36548;50.506;30.834;2022-08-07T02:27:54;100050.09;;;24.77;62.10
50592;BME280;36548;50.506;30.834;2022-08-07T02:29:23;100051.09;;;24.70;62.16
50592;BME280;36548;50.506;30.834;2022-08-07T02:30:52;100046.05;;;24.73;61.85
50592;BME280;36548;50.506;30.834;2022-08-07T02:32:03;100047.75;;;24.74;61.64
50592;BME280;36548;50.506;30.834;2022-08-07T02:33:22;100043.23;;;24.88;61.82
50592;BME280;36548;50.506;30.834;2022-08-07T02:34:36;100052.23;;;24.82;61.70
50592;BME280;36548;50.506;30.834;2022-08-07T02:35:49;100049.77;;;24.87;61.72
50592;BME280;36548;50.506;30.834;2022-08-07T02:37:04;100044.94;;;24.89;61.60
50592;BME280;36548;50.506;30.834;2022-08-07T02:38:26;100046.73;;;25.04;61.47
50592;BME280;36548;50.506;30.834;2022-08-07T02:39:39;100051.33;;;24.96;61.34
50592;BME280;36548;50.506;30.834;2022-08-07T02:40:56;100043.73;;;24.98;61.25
50592;BME280;36548;50.506;30.834;2022-08-07T02:42:07;100048.17;;;24.99;61.16
50592;BME280;36548;50.506;30.834;2022-08-07T02:43:25;100045.55;;;25.13;61.19
50592;BME280;36548;50.506;30.834;2022-08-07T02:44:40;100046.94;;;25.02;61.11
50592;BME280;36548;50.506;30.834;2022-08-07T02:45:57;100046.18;;;25.15;61.00
50592;BME280;36548;50.506;30.834;2022-08-07T02:47:11;100052.42;;;25.02;61.10
50592;BME280;36548;50.506;30.834;2022-08-07T02:48:27;100043.00;;;25.11;61.16
50592;BME280;36548;50.506;30.834;2022-08-07T02:49:40;100051.77;;;25.00;61.27
50592;BME280;36548;50.506;30.834;2022-08-07T02:51:10;100055.58;;;24.99;61.45
50592;BME280;36548;50.506;30.834;2022-08-07T02:52:35;100048.03;;;25.08;61.57
50592;BME280;36548;50.506;30.834;2022-08-07T02:53:47;100051.13;;;24.98;61.58
50592;BME280;36548;50.506;30.834;2022-08-07T02:55:20;100048.03;;;25.08;61.70
50592;BME280;36548;50.506;30.834;2022-08-07T02:56:29;100055.95;;;24.96;61.67
50592;BME280;36548;50.506;30.834;2022-08-07T02:58:03;100056.82;;;24.96;61.88
50592;BME280;36548;50.506;30.834;2022-08-07T02:59:22;100059.22;;;25.06;61.87
50592;BME280;36548;50.506;30.834;2022-08-07T03:00:37;100052.77;;;24.92;61.94
50592;BME280;36548;50.506;30.834;2022-08-07T03:01:55;100047.14;;;25.00;62.08
50592;BME280;36548;50.506;30.834;2022-08-07T03:03:10;100046.81;;;24.89;61.99
50592;BME280;36548;50.506;30.834;2022-08-07T03:04:26;100048.58;;;24.96;62.09
50592;BME280;36548;50.506;30.834;2022-08-07T03:05:38;100052.70;;;24.85;62.16
50592;BME280;36548;50.506;30.834;2022-08-07T03:06:49;100051.87;;;24.85;62.34
50592;BME280;36548;50.506;30.834;2022-08-07T03:08:07;100048.58;;;24.96;62.29
50592;BME280;36548;50.506;30.834;2022-08-07T03:09:21;100049.12;;;24.85;62.28
50592;BME280;36548;50.506;30.834;2022-08-07T03:10:37;100044.13;;;24.95;62.16
50592;BME280;36548;50.506;30.834;2022-08-07T03:11:50;100060.94;;;24.85;62.35
50592;BME280;36548;50.506;30.834;2022-08-07T03:13:19;100052.30;;;24.89;62.46
50592;BME280;36548;50.506;30.834;2022-08-07T03:14:41;100052.89;;;25.06;62.38
50592;BME280;36548;50.506;30.834;2022-08-07T03:15:53;100054.70;;;24.98;62.11
50592;BME280;36548;50.506;30.834;2022-08-07T03:17:06;100056.21;;;25.01;62.03
50592;BME280;36548;50.506;30.834;2022-08-07T03:18:18;100056.21;;;25.01;61.98
50592;BME280;36548;50.506;30.834;2022-08-07T03:19:31;100057.08;;;25.01;62.08
50592;BME280;36548;50.506;30.834;2022-08-07T03:20:45;100053.47;;;25.01;62.02
50592;BME280;36548;50.506;30.834;2022-08-07T03:22:02;100054.42;;;25.15;62.10
50592;BME280;36548;50.506;30.834;2022-08-07T03:23:13;100059.86;;;25.08;61.97
50592;BME280;36548;50.506;30.834;2022-08-07T03:24:26;100056.27;;;25.08;61.85
50592;BME280;36548;50.506;30.834;2022-08-07T03:25:44;100055.11;;;25.24;61.71
50592;BME280;36548;50.506;30.834;2022-08-07T03:27:00;100058.20;;;25.14;61.65
50592;BME280;36548;50.506;30.834;2022-08-07T03:28:18;100055.77;;;25.26;61.47
50592;BME280;36548;50.506;30.834;2022-08-07T03:29:45;100061.88;;;25.21;61.64
50592;BME280;36548;50.506;30.834;2022-08-07T03:31:10;100066.09;;;25.24;61.20
50592;BME280;36548;50.506;30.834;2022-08-07T03:33:59;100061.72;;;25.58;60.92
50592;BME280;36548;50.506;30.834;2022-08-07T03:35:16;100061.77;;;25.64;60.72
50592;BME280;36548;50.506;30.834;2022-08-07T03:36:29;100063.18;;;25.95;59.78
50592;BME280;36548;50.506;30.834;2022-08-07T03:37:50;100057.67;;;26.44;58.67
50592;BME280;36548;50.506;30.834;2022-08-07T03:39:08;100065.11;;;26.63;57.52
50592;BME280;36548;50.506;30.834;2022-08-07T03:40:25;100060.08;;;27.20;57.68
50592;BME280;36548;50.506;30.834;2022-08-07T03:41:38;100055.84;;;27.51;56.48
50592;BME280;36548;50.506;30.834;2022-08-07T03:42:55;100066.89;;;28.17;55.05
50592;BME280;36548;50.506;30.834;2022-08-07T03:44:06;100062.25;;;28.49;53.94
50592;BME280;36548;50.506;30.834;2022-08-07T03:45:23;100053.53;;;29.09;52.31
50592;BME280;36548;50.506;30.834;2022-08-07T03:46:37;100059.92;;;29.35;51.42
50592;BME280;36548;50.506;30.834;2022-08-07T03:47:55;100057.13;;;29.79;49.67
50592;BME280;36548;50.506;30.834;2022-08-07T03:49:08;100061.91;;;29.90;48.98
50592;BME280;36548;50.506;30.834;2022-08-07T03:50:36;100059.95;;;30.09;48.44
50592;BME280;36548;50.506;30.834;2022-08-07T03:51:46;100054.08;;;30.36;47.85
50592;BME280;36548;50.506;30.834;2022-08-07T03:53:02;100050.70;;;30.65;47.31
50592;BME280;36548;50.506;30.834;2022-08-07T03:54:15;100052.39;;;30.66;46.59
50592;BME280;36548;50.506;30.834;2022-08-07T03:55:28;100055.30;;;30.71;46.55
50592;BME280;36548;50.506;30.834;2022-08-07T03:56:44;100053.27;;;30.90;46.11
50592;BME280;36548;50.506;30.834;2022-08-07T03:57:57;100054.37;;;30.89;46.26
50592;BME280;36548;50.506;30.834;2022-08-07T03:59:12;100058.77;;;31.08;45.70
50592;BME280;36548;50.506;30.834;2022-08-07T04:00:29;100061.41;;;31.03;45.99
50592;BME280;36548;50.506;30.834;2022-08-07T04:01:58;100062.86;;;31.06;45.61
50592;BME280;36548;50.506;30.834;2022-08-07T04:03:14;100058.53;;;31.10;45.59
50592;BME280;36548;50.506;30.834;2022-08-07T04:04:24;100061.16;;;31.05;45.79
50592;BME280;36548;50.506;30.834;2022-08-07T04:05:40;100053.95;;;31.16;45.49
50592;BME280;36548;50.506;30.834;2022-08-07T04:06:54;100060.09;;;31.06;45.61
50592;BME280;36548;50.506;30.834;2022-08-07T04:08:21;100063.94;;;31.05;44.97
50592;BME280;36548;50.506;30.834;2022-08-07T04:09:39;100061.30;;;31.10;45.52
50592;BME280;36548;50.506;30.834;2022-08-07T04:10:53;100063.42;;;30.96;45.72
50592;BME280;36548;50.506;30.834;2022-08-07T04:12:09;100064.63;;;31.00;45.35
50592;BME280;36548;50.506;30.834;2022-08-07T04:13:22;100065.80;;;30.81;45.74
50592;BME280;36548;50.506;30.834;2022-08-07T04:14:49;100069.75;;;30.73;46.15
50592;BME280;36548;50.506;30.834;2022-08-07T04:16:06;100052.55;;;30.83;46.73
50592;BME280;36548;50.506;30.834;2022-08-07T04:17:17;100065.19;;;30.78;46.39
50592;BME280;36548;50.506;30.834;2022-08-07T04:18:31;100065.33;;;30.84;46.36
50592;BME280;36548;50.506;30.834;2022-08-07T04:19:43;100062.80;;;30.82;46.13
50592;BME280;36548;50.506;30.834;2022-08-07T04:20:56;100063.38;;;30.72;46.04
50592;BME280;36548;50.506;30.834;2022-08-07T04:22:13;100059.00;;;30.65;46.48
50592;BME280;36548;50.506;30.834;2022-08-07T04:23:28;100058.90;;;30.41;46.78
50592;BME280;36548;50.506;30.834;2022-08-07T04:24:45;100059.88;;;30.16;47.50
50592;BME280;36548;50.506;30.834;2022-08-07T04:25:55;100067.14;;;29.99;47.56
50592;BME280;36548;50.506;30.834;2022-08-07T04:27:24;100077.09;;;29.81;48.19
50592;BME280;36548;50.506;30.834;2022-08-07T04:28:41;100078.33;;;29.67;48.70
50592;BME280;36548;50.506;30.834;2022-08-07T04:29:53;100074.23;;;29.51;49.14
50592;BME280;36548;50.506;30.834;2022-08-07T04:31:09;100072.40;;;29.63;49.23
50592;BME280;36548;50.506;30.834;2022-08-07T04:32:21;100075.93;;;29.52;49.15
50592;BME280;36548;50.506;30.834;2022-08-07T04:33:38;100071.00;;;29.54;49.49
50592;BME280;36548;50.506;30.834;2022-08-07T04:34:49;100078.35;;;29.41;49.50
50592;BME280;36548;50.506;30.834;2022-08-07T04:36:19;100074.75;;;29.41;49.50
50592;BME280;36548;50.506;30.834;2022-08-07T04:37:35;100072.77;;;29.48;49.41
50592;BME280;36548;50.506;30.834;2022-08-07T04:38:48;100076.69;;;29.40;49.79
50592;BME280;36548;50.506;30.834;2022-08-07T04:40:06;100074.77;;;29.59;49.20
50592;BME280;36548;50.506;30.834;2022-08-07T04:41:29;100082.30;;;29.52;49.19
50592;BME280;36548;50.506;30.834;2022-08-07T04:42:56;100073.53;;;29.55;49.15
50592;BME280;36548;50.506;30.834;2022-08-07T04:44:14;100072.56;;;29.68;49.45
50592;BME280;36548;50.506;30.834;2022-08-07T04:45:31;100071.56;;;29.63;49.30
50592;BME280;36548;50.506;30.834;2022-08-07T04:47:13;100068.20;;;29.79;49.39
50592;BME280;36548;50.506;30.834;2022-08-07T04:48:38;100075.27;;;29.75;49.12
50592;BME280;36548;50.506;30.834;2022-08-07T04:55:28;100073.34;;;29.94;49.37
50592;BME280;36548;50.506;30.834;2022-08-07T04:56:50;100078.75;;;29.89;49.03
50592;BME280;36548;50.506;30.834;2022-08-07T04:58:23;100069.44;;;30.02;48.93
50592;BME280;36548;50.506;30.834;2022-08-07T05:01:29;100079.56;;;30.08;49.01
50592;BME280;36548;50.506;30.834;2022-08-07T05:02:56;100076.44;;;30.04;49.14
50592;BME280;36548;50.506;30.834;2022-08-07T05:04:17;100078.25;;;30.29;48.73
50592;BME280;36548;50.506;30.834;2022-08-07T05:07:04;100083.31;;;30.32;48.73
50592;BME280;36548;50.506;30.834;2022-08-07T05:08:27;100077.54;;;30.34;48.38
50592;BME280;36548;50.506;30.834;2022-08-07T05:11:13;100076.67;;;30.52;48.50
50592;BME280;36548;50.506;30.834;2022-08-07T05:12:46;100089.06;;;30.49;48.23
50592;BME280;36548;50.506;30.834;2022-08-07T05:14:26;100080.35;;;30.76;47.58
50592;BME280;36548;50.506;30.834;2022-08-07T05:15:53;100087.83;;;30.75;47.26
50592;BME280;36548;50.506;30.834;2022-08-07T05:17:13;100089.40;;;30.83;47.47
50592;BME280;36548;50.506;30.834;2022-08-07T05:18:42;100085.04;;;31.06;46.99
50592;BME280;36548;50.506;30.834;2022-08-07T05:19:57;100096.61;;;31.03;46.90
50592;BME280;36548;50.506;30.834;2022-08-07T05:21:09;100086.73;;;31.07;46.87
50592;BME280;36548;50.506;30.834;2022-08-07T05:22:23;100092.14;;;31.14;46.55
50592;BME280;36548;50.506;30.834;2022-08-07T05:25:03;100090.95;;;31.21;47.28
50592;BME280;36548;50.506;30.834;2022-08-07T05:26:33;100093.01;;;31.14;46.92
50592;BME280;36548;50.506;30.834;2022-08-07T05:27:50;100088.91;;;31.28;46.81
50592;BME280;36548;50.506;30.834;2022-08-07T05:29:05;100088.91;;;31.28;46.71
50592;BME280;36548;50.506;30.834;2022-08-07T05:30:34;100092.16;;;31.37;46.54
50592;BME280;36548;50.506;30.834;2022-08-07T05:31:47;100094.57;;;31.45;46.36
50592;BME280;36548;50.506;30.834;2022-08-07T05:33:03;100093.13;;;31.55;45.91
50592;BME280;36548;50.506;30.834;2022-08-07T05:34:21;100093.27;;;31.72;45.99
50592;BME280;36548;50.506;30.834;2022-08-07T05:35:34;100095.58;;;31.63;46.24
50592;BME280;36548;50.506;30.834;2022-08-07T05:36:51;100094.71;;;31.74;45.86
50592;BME280;36548;50.506;30.834;2022-08-07T05:38:12;100094.74;;;31.63;45.77
50592;BME280;36548;50.506;30.834;2022-08-07T05:39:40;100093.13;;;31.55;45.99
50592;BME280;36548;50.506;30.834;2022-08-07T05:40:56;100084.94;;;31.72;46.01
50592;BME280;36548;50.506;30.834;2022-08-07T05:42:09;100093.17;;;31.67;45.61
50592;BME280;36548;50.506;30.834;2022-08-07T05:43:22;100087.84;;;31.77;45.35
50592;BME280;36548;50.506;30.834;2022-08-07T05:44:35;100097.58;;;31.91;45.15
50592;BME280;36548;50.506;30.834;2022-08-07T05:45:51;100087.04;;;32.05;45.06
50592;BME280;36548;50.506;30.834;2022-08-07T05:47:03;100089.61;;;31.95;44.75
50592;BME280;36548;50.506;30.834;2022-08-07T05:48:21;100090.43;;;32.07;44.65
50592;BME280;36548;50.506;30.834;2022-08-07T05:49:34;100090.56;;;32.01;44.24
50592;BME280;36548;50.506;30.834;2022-08-07T05:51:03;100089.37;;;31.96;44.05
50592;BME280;36548;50.506;30.834;2022-08-07T05:52:19;100098.56;;;31.97;44.18
50592;BME280;36548;50.506;30.834;2022-08-07T05:53:32;100096.74;;;31.91;44.51
50592;BME280;36548;50.506;30.834;2022-08-07T05:54:45;100093.97;;;31.91;44.85
50592;BME280;36548;50.506;30.834;2022-08-07T05:56:01;100093.45;;;32.06;44.68
50592;BME280;36548;50.506;30.834;2022-08-07T05:57:14;100096.25;;;31.94;44.32
50592;BME280;36548;50.506;30.834;2022-08-07T05:58:26;100094.42;;;32.00;44.12
50592;BME280;36548;50.506;30.834;2022-08-07T05:59:39;100094.91;;;32.08;44.07
50592;BME280;36548;50.506;30.834;2022-08-07T06:00:53;100098.16;;;32.17;44.13
50592;BME280;36548;50.506;30.834;2022-08-07T06:02:12;100087.11;;;32.34;44.23
50592;BME280;36548;50.506;30.834;2022-08-07T06:03:28;100096.69;;;32.26;43.55
50592;BME280;36548;50.506;30.834;2022-08-07T06:04:44;100096.30;;;32.35;43.75
50592;BME280;36548;50.506;30.834;2022-08-07T06:06:00;100091.37;;;32.54;43.57
50592;BME280;36548;50.506;30.834;2022-08-07T06:07:11;100102.48;;;32.54;43.75
50592;BME280;36548;50.506;30.834;2022-08-07T06:08:23;100096.27;;;32.63;43.18
50592;BME280;36548;50.506;30.834;2022-08-07T06:09:39;100093.12;;;32.72;42.62
50592;BME280;36548;50.506;30.834;2022-08-07T06:10:52;100100.74;;;32.64;43.09
50592;BME280;36548;50.506;30.834;2022-08-07T06:12:04;100100.88;;;32.70;43.12
50592;BME280;36548;50.506;30.834;2022-08-07T06:13:22;100097.55;;;32.85;43.07
50592;BME280;36548;50.506;30.834;2022-08-07T06:14:34;100096.00;;;32.77;43.09
50592;BME280;36548;50.506;30.834;2022-08-07T06:15:50;100100.33;;;32.85;43.34
50592;BME280;36548;50.506;30.834;2022-08-07T06:17:19;100096.26;;;32.75;43.27
50592;BME280;36548;50.506;30.834;2022-08-07T06:18:47;100098.02;;;32.82;43.30
50592;BME280;36548;50.506;30.834;2022-08-07T06:20:00;100105.13;;;32.89;43.24
50592;BME280;36548;50.506;30.834;2022-08-07T06:21:12;100104.97;;;32.96;42.88
50592;BME280;36548;50.506;30.834;2022-08-07T06:22:30;100097.87;;;33.05;42.72
50592;BME280;36548;50.506;30.834;2022-08-07T06:23:46;100104.10;;;32.95;42.85
50592;BME280;36548;50.506;30.834;2022-08-07T06:25:01;100099.24;;;33.03;42.74
50592;BME280;36548;50.506;30.834;2022-08-07T06:26:13;100103.88;;;32.97;42.22
50592;BME280;36548;50.506;30.834;2022-08-07T06:27:30;100095.09;;;33.05;42.22
50592;BME280;36548;50.506;30.834;2022-08-07T06:30:02;100095.09;;;32.88;42.34
50592;BME280;36548;50.506;30.834;2022-08-07T06:31:12;100100.07;;;32.86;42.41
50592;BME280;36548;50.506;30.834;2022-08-07T06:32:28;100095.28;;;32.99;42.46
50592;BME280;36548;50.506;30.834;2022-08-07T06:33:40;100105.22;;;32.94;42.26
50592;BME280;36548;50.506;30.834;2022-08-07T06:34:50;100106.05;;;32.95;41.74
50592;BME280;36548;50.506;30.834;2022-08-07T06:36:00;100108.16;;;32.88;41.87
50592;BME280;36548;50.506;30.834;2022-08-07T06:37:28;100107.74;;;32.96;42.07
50592;BME280;36548;50.506;30.834;2022-08-07T06:38:40;100103.88;;;33.14;41.39
50592;BME280;36548;50.506;30.834;2022-08-07T06:39:57;100104.67;;;33.26;41.70
50592;BME280;36548;50.506;30.834;2022-08-07T06:41:11;100105.76;;;33.25;41.36
50592;BME280;36548;50.506;30.834;2022-08-07T06:42:26;100102.72;;;33.27;41.22
50592;BME280;36548;50.506;30.834;2022-08-07T06:43:45;100102.64;;;33.39;40.98
50592;BME280;36548;50.506;30.834;2022-08-07T06:45:17;100109.18;;;33.50;40.83
50592;BME280;36548;50.506;30.834;2022-08-07T06:46:40;100102.70;;;33.61;40.89
50592;BME280;36548;50.506;30.834;2022-08-07T06:47:52;100106.23;;;33.56;40.46
50592;BME280;36548;50.506;30.834;2022-08-07T06:49:05;100105.48;;;33.61;40.52
50592;BME280;36548;50.506;30.834;2022-08-07T06:50:21;100100.62;;;33.73;39.92
50592;BME280;36548;50.506;30.834;2022-08-07T06:51:34;100103.53;;;33.61;40.09
50592;BME280;36548;50.506;30.834;2022-08-07T06:52:52;100099.05;;;33.60;40.46
50592;BME280;36548;50.506;30.834;2022-08-07T06:54:08;100104.70;;;33.65;40.29